createdAt,value
2018-06-12T00:01:39.492Z,97464.66
2018-06-12T00:04:08.638Z,97458.68
2018-06-12T00:06:38.045Z,97460.44
2018-06-12T00:09:08.061Z,97458.97
2018-06-12T00:11:37.445Z,97455.78
2018-06-12T00:14:06.801Z,97459.14
2018-06-12T00:16:36.181Z,97458.70
2018-06-12T00:19:05.640Z,97459.92
2018-06-12T00:21:35.033Z,97456.63
2018-06-12T00:24:04.442Z,97461.94
2018-06-12T00:26:33.816Z,97461.48
2018-06-12T00:29:03.213Z,97466.53
2018-06-12T00:31:32.594Z,97467.11
2018-06-12T00:34:01.985Z,97469.36
2018-06-12T00:36:31.381Z,97473.08
2018-06-12T00:39:00.794Z,97476.51
2018-06-12T00:41:36.517Z,97471.33
2018-06-12T00:44:05.921Z,97480.85
2018-06-12T00:46:35.275Z,97477.41
2018-06-12T00:49:04.428Z,97477.98
2018-06-12T00:51:33.801Z,97483.90
2018-06-12T00:54:03.220Z,97481.22
2018-06-12T00:56:49.624Z,97474.38
2018-06-12T00:59:19.096Z,97476.97
2018-06-12T01:01:48.594Z,97477.73
2018-06-12T01:04:17.996Z,97479.14
2018-06-12T01:06:47.500Z,97478.25
2018-06-12T01:09:16.936Z,97482.33
2018-06-12T01:14:46.729Z,97494.54
2018-06-12T01:17:16.113Z,97494.15
2018-06-12T01:19:45.448Z,97489.73
2018-06-12T01:22:14.805Z,97482.65
2018-06-12T01:24:44.241Z,97486.20
2018-06-12T01:27:13.652Z,97494.27
2018-06-12T01:29:43.025Z,97492.45
2018-06-12T01:32:12.414Z,97497.79
2018-06-12T01:34:41.807Z,97498.77
2018-06-12T01:37:11.236Z,97498.16
2018-06-12T01:39:48.349Z,97500.09
2018-06-12T01:42:17.700Z,97511.03
2018-06-12T01:44:47.032Z,97513.05
2018-06-12T01:47:16.420Z,97518.91
2018-06-12T01:49:45.795Z,97517.28
2018-06-12T01:52:15.144Z,97519.33
2018-06-12T01:54:44.511Z,97517.20
2018-06-12T01:57:13.882Z,97515.19
2018-06-12T01:59:43.308Z,97516.05
2018-06-12T02:02:12.690Z,97516.78
2018-06-12T02:04:42.033Z,97521.27
2018-06-12T02:07:11.396Z,97519.06
2018-06-12T02:15:35.038Z,97522.08
2018-06-12T02:18:04.461Z,97524.39
2018-06-12T02:20:41.835Z,97516.44
2018-06-12T02:23:11.257Z,97516.44
2018-06-12T02:25:40.633Z,97513.02
2018-06-12T02:28:10.173Z,97514.45
2018-06-12T02:30:39.633Z,97523.06
2018-06-12T02:33:09.001Z,97518.08
2018-06-12T02:35:38.365Z,97517.00
2018-06-12T02:38:13.765Z,97513.81
2018-06-12T02:40:43.150Z,97515.98
2018-06-12T02:43:12.518Z,97522.27
2018-06-12T02:45:41.872Z,97523.27
2018-06-12T02:48:11.242Z,97522.11
2018-06-12T02:50:40.602Z,97512.53
2018-06-12T02:53:09.949Z,97516.37
2018-06-12T02:55:39.355Z,97512.16
2018-06-12T02:58:08.713Z,97514.53
2018-06-12T03:00:38.122Z,97508.56
2018-06-12T03:03:07.484Z,97514.65
2018-06-12T03:05:36.852Z,97515.13
2018-06-12T03:08:06.366Z,97516.81
2018-06-12T03:10:35.816Z,97518.39
2018-06-12T03:13:05.208Z,97514.13
2018-06-12T03:15:46.564Z,97515.87
2018-06-12T03:18:15.960Z,97522.78
2018-06-12T03:20:46.433Z,97520.38
2018-06-12T03:23:15.880Z,97518.25
2018-06-12T03:25:45.224Z,97522.16
2018-06-12T03:28:14.620Z,97520.34
2018-06-12T03:30:51.241Z,97527.96
2018-06-12T03:33:20.630Z,97527.23
2018-06-12T03:35:50.010Z,97533.13
2018-06-12T03:38:20.313Z,97531.28
2018-06-12T03:40:49.705Z,97530.76
2018-06-12T03:43:19.204Z,97533.23
2018-06-12T03:45:48.548Z,97534.01
2018-06-12T03:48:23.717Z,97531.87
2018-06-12T03:50:53.088Z,97532.67
2018-06-12T03:53:22.541Z,97530.02
2018-06-12T03:55:51.910Z,97536.17
2018-06-12T03:58:21.244Z,97528.38
2018-06-12T04:00:50.719Z,97529.63
2018-06-12T04:03:20.106Z,97524.36
2018-06-12T04:05:49.493Z,97525.76
2018-06-12T04:08:18.918Z,97529.08
2018-06-12T04:10:48.307Z,97529.91
2018-06-12T04:13:17.766Z,97533.16
2018-06-12T04:15:47.188Z,97529.73
2018-06-12T04:18:16.532Z,97531.61
2018-06-12T04:20:45.936Z,97533.63
2018-06-12T04:23:15.308Z,97534.44
2018-06-12T04:25:44.652Z,97546.69
2018-06-12T04:28:14.077Z,97545.82
2018-06-12T04:30:43.454Z,97545.62
2018-06-12T04:33:12.918Z,97541.82
2018-06-12T04:35:42.278Z,97543.31
2018-06-12T04:38:11.634Z,97544.30
2018-06-12T04:40:53.777Z,97543.95
2018-06-12T04:43:23.165Z,97535.84
2018-06-12T04:45:52.504Z,97538.72
2018-06-12T04:48:21.855Z,97540.70
2018-06-12T04:50:51.223Z,97540.63
2018-06-12T04:53:23.584Z,97545.80
2018-06-12T04:55:52.941Z,97551.35
2018-06-12T04:58:22.393Z,97548.32
2018-06-12T05:00:51.792Z,97550.09
2018-06-12T05:03:21.244Z,97550.09
2018-06-12T05:05:50.596Z,97558.91
2018-06-12T05:08:20.021Z,97566.11
2018-06-12T05:10:49.353Z,97557.97
2018-06-12T05:13:18.704Z,97564.95
2018-06-12T05:15:48.225Z,97571.34
2018-06-12T05:18:25.276Z,97564.56
2018-06-12T05:20:54.641Z,97576.13
2018-06-12T05:26:24.615Z,97572.63
2018-06-12T05:28:53.976Z,97575.11
2018-06-12T05:31:28.782Z,97572.59
2018-06-12T05:33:58.149Z,97579.11
2018-06-12T05:36:27.510Z,97580.98
2018-06-12T05:38:57.031Z,97589.67
2018-06-12T05:41:26.402Z,97588.11
2018-06-12T05:43:55.739Z,97591.28
2018-06-12T05:46:25.180Z,97594.57
2018-06-12T05:48:54.536Z,97595.25
2018-06-12T05:51:23.940Z,97601.66
2018-06-12T05:53:53.353Z,97604.59
2018-06-12T05:56:23.048Z,97599.23
2018-06-12T05:58:52.448Z,97606.27
2018-06-12T06:01:21.874Z,97605.09
2018-06-12T06:03:51.225Z,97597.32
2018-06-12T06:06:20.566Z,97601.73
2018-06-12T06:08:49.956Z,97592.43
2018-06-12T06:11:19.322Z,97595.91
2018-06-12T06:13:48.672Z,97595.44
2018-06-12T06:16:21.606Z,97592.16
2018-06-12T06:18:50.988Z,97592.69
2018-06-12T06:21:20.420Z,97593.98
2018-06-12T06:23:49.888Z,97590.75
2018-06-12T06:26:19.180Z,97596.81
2018-06-12T06:28:48.561Z,97604.30
2018-06-12T06:31:17.958Z,97597.15
2018-06-12T06:33:47.360Z,97594.63
2018-06-12T06:36:16.726Z,97607.66
2018-06-12T06:38:46.136Z,97606.77
2018-06-12T06:41:15.496Z,97594.06
2018-06-12T06:43:57.500Z,97608.05
2018-06-12T06:46:26.861Z,97609.00
2018-06-12T06:48:56.208Z,97610.58
2018-06-12T06:51:25.550Z,97604.16
2018-06-12T06:53:54.919Z,97603.02
2018-06-12T06:56:24.304Z,97600.95
2018-06-12T06:58:53.752Z,97605.78
2018-06-12T07:01:23.109Z,97606.98
2018-06-12T07:03:52.496Z,97612.42
2018-06-12T07:06:21.824Z,97608.32
2018-06-12T07:08:51.237Z,97608.02
2018-06-12T07:11:20.582Z,97603.28
2018-06-12T07:13:51.936Z,97602.42
2018-06-12T07:16:21.293Z,97609.05
2018-06-12T07:18:50.664Z,97609.05
2018-06-12T07:21:23.292Z,97612.40
2018-06-12T07:23:52.657Z,97605.52
2018-06-12T07:26:22.000Z,97605.14
2018-06-12T07:28:54.716Z,97604.81
2018-06-12T07:31:24.080Z,97600.73
2018-06-12T07:33:53.413Z,97601.58
2018-06-12T07:36:22.739Z,97605.86
2018-06-12T07:38:52.200Z,97609.62
2018-06-12T07:41:21.592Z,97616.53
2018-06-12T07:43:51.048Z,97612.64
2018-06-12T07:46:20.393Z,97616.94
2018-06-12T07:48:49.744Z,97615.85
2018-06-12T07:51:19.124Z,97612.39
2018-06-12T07:53:48.561Z,97610.87
2018-06-12T07:56:17.908Z,97606.77
2018-06-12T07:58:47.257Z,97609.54
2018-06-12T08:01:16.876Z,97612.30
2018-06-12T08:03:46.264Z,97613.45
2018-06-12T08:06:15.696Z,97612.55
2018-06-12T08:08:45.128Z,97617.59
2018-06-12T08:11:14.540Z,97615.39
2018-06-12T08:13:43.898Z,97613.93
2018-06-12T08:16:13.357Z,97617.61
2018-06-12T08:18:42.704Z,97620.05
2018-06-12T08:21:12.060Z,97614.21
2018-06-12T08:23:41.400Z,97619.87
2018-06-12T08:26:35.439Z,97622.78
2018-06-12T08:29:04.774Z,97628.06
2018-06-12T08:31:33.851Z,97623.93
2018-06-12T08:34:03.231Z,97626.86
2018-06-12T08:36:32.561Z,97629.52
2018-06-12T08:39:01.995Z,97638.84
2018-06-12T08:41:31.341Z,97640.42
2018-06-12T08:44:00.717Z,97639.69
2018-06-12T08:46:30.133Z,97633.80
2018-06-12T08:48:59.436Z,97635.03
2018-06-12T08:51:32.105Z,97632.91
2018-06-12T08:54:01.490Z,97633.43
2018-06-12T08:56:30.864Z,97630.73
2018-06-12T08:59:00.193Z,97628.95
2018-06-12T09:01:29.530Z,97637.38
2018-06-12T09:03:58.936Z,97636.47
2018-06-12T09:06:28.269Z,97637.69
2018-06-12T09:08:57.632Z,97632.66
2018-06-12T09:11:27.049Z,97634.05
2018-06-12T09:13:56.473Z,97630.83
2018-06-12T09:16:25.829Z,97635.64
2018-06-12T09:18:55.167Z,97630.51
2018-06-12T09:21:24.521Z,97629.80
2018-06-12T09:23:53.848Z,97626.92
2018-06-12T09:26:23.236Z,97625.38
2018-06-12T09:28:52.589Z,97630.59
2018-06-12T09:31:21.933Z,97628.38
2018-06-12T09:33:51.297Z,97634.08
2018-06-12T09:36:25.936Z,97631.27
2018-06-12T09:38:55.301Z,97635.42
2018-06-12T09:41:24.632Z,97638.58
2018-06-12T09:43:54.005Z,97635.15
2018-06-12T09:46:23.466Z,97635.34
2018-06-12T09:48:52.798Z,97635.15
2018-06-12T09:51:22.165Z,97643.89
2018-06-12T09:53:51.508Z,97646.97
2018-06-12T09:56:20.945Z,97644.31
2018-06-12T09:58:50.331Z,97650.71
2018-06-12T10:01:20.681Z,97649.75
2018-06-12T10:03:52.046Z,97652.39
2018-06-12T10:06:21.417Z,97655.95
2018-06-12T10:08:50.835Z,97655.83
2018-06-12T10:11:20.178Z,97654.77
2018-06-12T10:13:49.529Z,97654.85
2018-06-12T10:16:18.923Z,97659.13
2018-06-12T10:18:48.276Z,97658.02
2018-06-12T10:21:17.635Z,97664.20
2018-06-12T10:23:46.990Z,97666.70
2018-06-12T10:26:16.366Z,97672.66
2018-06-12T10:28:45.712Z,97674.19
2018-06-12T10:31:15.091Z,97673.45
2018-06-12T10:33:44.432Z,97671.88
2018-06-12T10:36:13.815Z,97670.83
2018-06-12T10:38:43.207Z,97669.93
2018-06-12T10:41:12.662Z,97663.37
2018-06-12T10:43:42.012Z,97673.45
2018-06-12T10:46:11.345Z,97674.89
2018-06-12T10:48:40.700Z,97672.92
2018-06-12T10:51:10.093Z,97677.48
2018-06-12T10:53:39.448Z,97673.30
2018-06-12T10:56:08.816Z,97675.19
2018-06-12T10:58:38.167Z,97673.15
2018-06-12T11:01:07.564Z,97671.80
2018-06-12T11:03:36.982Z,97671.22
2018-06-12T11:06:06.309Z,97670.05
2018-06-12T11:08:36.675Z,97663.85
2018-06-12T11:11:05.995Z,97667.47
2018-06-12T11:13:35.341Z,97666.78
2018-06-12T11:16:04.689Z,97663.69
2018-06-12T11:18:34.031Z,97664.45
2018-06-12T11:21:03.384Z,97667.44
2018-06-12T11:23:32.725Z,97661.94
2018-06-12T11:26:02.056Z,97660.79
2018-06-12T11:28:31.449Z,97659.48
2018-06-12T11:31:00.794Z,97662.61
2018-06-12T11:33:30.143Z,97660.78
2018-06-12T11:35:59.481Z,97664.02
2018-06-12T11:38:28.838Z,97663.85
2018-06-12T11:40:58.240Z,97661.80
2018-06-12T11:43:27.574Z,97667.92
2018-06-12T11:45:56.924Z,97666.22
2018-06-12T11:48:26.357Z,97662.42
2018-06-12T11:50:55.749Z,97669.28
2018-06-12T11:53:25.082Z,97664.84
2018-06-12T11:55:54.417Z,97658.30
2018-06-12T11:58:23.760Z,97660.94
2018-06-12T12:00:53.136Z,97656.45
2018-06-12T12:03:22.524Z,97657.32
2018-06-12T12:05:51.923Z,97658.25
2018-06-12T12:08:21.265Z,97653.51
2018-06-12T12:10:50.636Z,97650.48
2018-06-12T12:13:19.969Z,97647.56
2018-06-12T12:15:49.325Z,97645.59
2018-06-12T12:18:18.664Z,97637.30
2018-06-12T12:20:48.022Z,97636.13
2018-06-12T12:23:17.446Z,97641.59
2018-06-12T12:25:46.745Z,97636.36
2018-06-12T12:28:22.019Z,97639.14
2018-06-12T12:30:51.360Z,97632.10
2018-06-12T12:33:20.741Z,97633.06
2018-06-12T12:35:50.112Z,97630.53
2018-06-12T12:38:19.439Z,97625.96
2018-06-12T12:40:48.811Z,97621.28
2018-06-12T12:43:18.165Z,97618.55
2018-06-12T12:45:47.547Z,97612.66
2018-06-12T12:48:16.914Z,97613.39
2018-06-12T12:50:46.263Z,97600.88
2018-06-12T12:53:15.726Z,97598.39
2018-06-12T12:55:45.060Z,97589.11
2018-06-12T12:58:14.469Z,97582.50
2018-06-12T13:00:43.832Z,97586.32
2018-06-12T13:03:13.204Z,97592.34
2018-06-12T13:05:42.654Z,97587.58
2018-06-12T13:08:12.029Z,97583.66
2018-06-12T13:10:41.361Z,97576.20
2018-06-12T13:13:10.756Z,97578.39
2018-06-12T13:15:40.105Z,97577.66
2018-06-12T13:18:09.453Z,97570.70
2018-06-12T13:20:38.849Z,97574.70
2018-06-12T13:23:14.099Z,97573.14
2018-06-12T13:25:43.450Z,97571.28
2018-06-12T13:28:12.782Z,97570.08
2018-06-12T13:30:42.132Z,97567.68
2018-06-12T13:33:11.572Z,97569.20
2018-06-12T13:35:40.993Z,97574.48
2018-06-12T13:38:10.314Z,97573.45
2018-06-12T13:40:39.640Z,97573.17
2018-06-12T13:43:10.976Z,97572.59
2018-06-12T13:45:40.301Z,97572.62
2018-06-12T13:48:09.733Z,97569.73
2018-06-12T13:50:39.077Z,97566.77
2018-06-12T13:53:08.459Z,97566.88
2018-06-12T13:55:37.814Z,97569.54
2018-06-12T13:58:07.202Z,97571.77
2018-06-12T14:00:36.572Z,97572.39
2018-06-12T14:03:06.548Z,97573.75
2018-06-12T14:05:35.914Z,97574.98
2018-06-12T14:08:05.249Z,97568.64
2018-06-12T14:10:34.598Z,97576.55
2018-06-12T14:13:03.984Z,97578.84
2018-06-12T14:15:33.371Z,97568.33
2018-06-12T14:18:02.737Z,97575.38
2018-06-12T14:20:32.088Z,97569.98
2018-06-12T14:23:05.004Z,97567.61
2018-06-12T14:25:34.336Z,97571.97
2018-06-12T14:28:03.724Z,97574.77
2018-06-12T14:30:33.072Z,97573.30
2018-06-12T14:33:02.429Z,97576.58
2018-06-12T14:35:31.797Z,97573.36
2018-06-12T14:38:01.149Z,97572.33
2018-06-12T14:40:30.535Z,97576.14
2018-06-12T14:42:59.881Z,97585.96
2018-06-12T14:45:29.213Z,97583.98
2018-06-12T14:47:58.669Z,97589.88
2018-06-12T14:50:28.693Z,97580.44
2018-06-12T14:52:58.070Z,97586.66
2018-06-12T15:04:30.959Z,97582.82
2018-06-12T15:07:00.405Z,97578.59
2018-06-12T15:09:29.765Z,97573.71
2018-06-12T15:11:59.104Z,97578.59
2018-06-12T15:14:28.454Z,97579.54
2018-06-12T15:16:57.820Z,97579.59
2018-06-12T15:19:27.169Z,97574.66
2018-06-12T15:21:56.495Z,97584.48
2018-06-12T15:24:25.833Z,97579.80
2018-06-12T15:26:55.177Z,97575.10
2018-06-12T15:29:24.509Z,97577.41
2018-06-12T15:31:53.849Z,97573.26
2018-06-12T15:34:23.199Z,97569.76
2018-06-12T15:36:52.572Z,97564.34
2018-06-12T15:39:21.964Z,97561.98
2018-06-12T15:41:51.296Z,97557.50
2018-06-12T15:44:20.636Z,97542.43
2018-06-12T15:46:50.055Z,97543.80
2018-06-12T15:49:19.423Z,97544.95
2018-06-12T15:51:48.745Z,97539.77
2018-06-12T15:54:18.098Z,97542.46
2018-06-12T15:56:47.560Z,97550.56
2018-06-12T15:59:16.949Z,97543.91
2018-06-12T16:01:46.313Z,97538.27
2018-06-12T16:04:15.636Z,97543.19
2018-06-12T16:06:44.984Z,97541.70
2018-06-12T16:09:14.376Z,97542.64
2018-06-12T16:11:43.825Z,97541.83
2018-06-12T16:14:13.153Z,97537.27
2018-06-12T16:16:42.491Z,97538.84
2018-06-12T16:19:11.853Z,97542.48
2018-06-12T16:21:41.233Z,97543.34
2018-06-12T16:24:10.541Z,97546.16
2018-06-12T16:26:39.933Z,97544.00
2018-06-12T16:29:09.297Z,97550.96
2018-06-12T16:31:38.781Z,97539.70
2018-06-12T16:34:08.125Z,97542.69
2018-06-12T16:36:37.472Z,97544.20
2018-06-12T16:39:08.676Z,97540.81
2018-06-12T16:41:38.049Z,97537.78
2018-06-12T16:44:10.744Z,97538.61
2018-06-12T16:46:40.073Z,97529.77
2018-06-12T16:49:09.425Z,97533.78
2018-06-12T16:51:38.753Z,97529.00
2018-06-12T16:54:08.185Z,97534.36
2018-06-12T16:56:37.556Z,97540.42
2018-06-12T16:59:07.008Z,97535.05
2018-06-12T17:01:36.398Z,97538.50
2018-06-12T17:04:06.489Z,97536.31
2018-06-12T17:06:35.839Z,97546.66
2018-06-12T17:09:07.896Z,97542.84
2018-06-12T17:11:37.312Z,97549.60
2018-06-12T17:14:06.993Z,97543.59
2018-06-12T17:16:37.068Z,97540.02
2018-06-12T17:19:07.224Z,97539.97
2018-06-12T17:21:37.338Z,97542.22
2018-06-12T17:24:09.013Z,97538.27
2018-06-12T17:26:39.765Z,97537.13
2018-06-12T17:29:11.019Z,97538.67
2018-06-12T17:31:41.175Z,97530.88
2018-06-12T17:34:12.470Z,97537.28
2018-06-12T17:36:43.663Z,97540.02
2018-06-12T17:39:15.217Z,97537.52
2018-06-12T17:41:46.327Z,97535.90
2018-06-12T17:44:17.767Z,97539.83
2018-06-12T17:46:49.505Z,97538.27
2018-06-12T17:49:21.217Z,97545.69
2018-06-12T17:51:53.291Z,97555.80
2018-06-12T17:54:25.373Z,97552.80
2018-06-12T17:56:57.593Z,97560.53
2018-06-12T17:59:29.768Z,97553.20
2018-06-12T18:02:01.834Z,97561.47
2018-06-12T18:04:33.871Z,97568.75
2018-06-12T18:07:06.055Z,97575.12
2018-06-12T18:09:37.973Z,97563.91
2018-06-12T18:12:10.074Z,97577.91
2018-06-12T18:14:42.215Z,97575.91
2018-06-12T18:17:14.359Z,97581.47
2018-06-12T18:19:54.838Z,97581.88
2018-06-12T18:22:27.059Z,97586.69
2018-06-12T18:24:59.272Z,97588.47
2018-06-12T18:27:32.136Z,97589.34
2018-06-12T18:30:04.978Z,97593.11
2018-06-12T18:32:37.653Z,97590.77
2018-06-12T18:35:10.988Z,97599.02
2018-06-12T18:37:44.082Z,97597.95
2018-06-12T18:40:16.394Z,97601.03
2018-06-12T18:42:48.656Z,97604.77
2018-06-12T18:45:21.600Z,97611.09
2018-06-12T18:47:53.892Z,97601.69
2018-06-12T18:50:26.184Z,97602.67
2018-06-12T18:52:58.478Z,97608.27
2018-06-12T18:55:30.780Z,97611.23
2018-06-12T18:58:03.035Z,97611.66
2018-06-12T19:00:36.192Z,97610.82
2018-06-12T19:03:08.539Z,97617.00
2018-06-12T19:05:40.799Z,97609.30
2018-06-12T19:08:13.008Z,97613.41
2018-06-12T19:10:45.264Z,97610.70
2018-06-12T19:13:17.511Z,97610.06
2018-06-12T19:15:50.076Z,97618.23
2018-06-12T19:18:22.337Z,97623.98
2018-06-12T19:20:54.625Z,97628.44
2018-06-12T19:23:27.034Z,97626.56
2018-06-12T19:25:59.332Z,97624.02
2018-06-12T19:28:31.617Z,97625.55
2018-06-12T19:31:03.936Z,97631.34
2018-06-12T19:33:36.440Z,97634.44
2018-06-12T19:36:08.820Z,97648.78
2018-06-12T19:38:41.049Z,97649.20
2018-06-12T19:41:13.345Z,97646.72
2018-06-12T19:43:46.001Z,97655.10
2018-06-12T19:46:18.296Z,97656.14
2018-06-12T19:48:50.475Z,97665.66
2018-06-12T19:51:22.827Z,97666.28
2018-06-12T19:53:55.072Z,97665.69
2018-06-12T19:56:27.453Z,97675.91
2018-06-12T19:58:59.678Z,97681.28
2018-06-12T20:01:32.049Z,97688.00
2018-06-12T20:04:04.197Z,97685.64
2018-06-12T20:06:41.566Z,97690.32
2018-06-12T20:09:13.747Z,97691.18
2018-06-12T20:11:46.086Z,97696.59
2018-06-12T20:14:18.313Z,97688.77
2018-06-12T20:16:50.677Z,97700.38
2018-06-12T20:19:22.817Z,97692.50
2018-06-12T20:21:54.967Z,97699.64
2018-06-12T20:24:27.026Z,97698.55
2018-06-12T20:26:59.296Z,97697.28
2018-06-12T20:29:31.476Z,97694.10
2018-06-12T20:32:03.803Z,97697.17
2018-06-12T20:34:35.830Z,97694.08
2018-06-12T20:37:08.115Z,97698.70
2018-06-12T20:39:40.234Z,97700.64
2018-06-12T20:42:12.295Z,97691.80
2018-06-12T20:44:44.406Z,97694.67
2018-06-12T20:47:16.505Z,97702.16
2018-06-12T20:49:48.726Z,97697.61
2018-06-12T20:52:20.779Z,97696.31
2018-06-12T20:54:52.875Z,97693.48
2018-06-12T20:57:25.117Z,97689.60
2018-06-12T20:59:57.245Z,97695.01
2018-06-12T21:02:29.289Z,97697.14
2018-06-12T21:05:01.328Z,97691.08
2018-06-12T21:07:33.335Z,97693.28
2018-06-12T21:10:04.759Z,97702.70
2018-06-12T21:12:34.834Z,97701.77
2018-06-12T21:15:04.867Z,97703.98
2018-06-12T21:17:34.572Z,97695.34
2018-06-12T21:20:04.040Z,97693.94
2018-06-12T21:22:33.468Z,97695.48
2018-06-12T21:25:02.866Z,97695.52
2018-06-12T21:27:32.216Z,97690.44
2018-06-12T21:30:02.412Z,97694.67
2018-06-12T21:32:31.732Z,97695.31
2018-06-12T21:35:01.083Z,97703.51
2018-06-12T21:37:30.416Z,97702.80
2018-06-12T21:39:59.745Z,97702.23
2018-06-12T21:42:29.100Z,97701.86
2018-06-12T21:44:58.417Z,97701.71
2018-06-12T21:47:27.781Z,97700.31
2018-06-12T21:49:57.090Z,97697.52
2018-06-12T21:52:26.456Z,97701.33
2018-06-12T21:54:55.845Z,97703.47
2018-06-12T21:57:25.232Z,97699.19
2018-06-12T21:59:54.589Z,97699.59
2018-06-12T22:02:23.934Z,97704.30
2018-06-12T22:04:53.316Z,97704.28
2018-06-12T22:07:22.644Z,97704.61
2018-06-12T22:09:52.017Z,97704.36
2018-06-12T22:12:21.375Z,97701.36
2018-06-12T22:14:50.761Z,97703.65
2018-06-12T22:17:20.121Z,97708.30
2018-06-12T22:19:49.458Z,97704.59
2018-06-12T22:22:18.798Z,97708.88
2018-06-12T22:24:48.145Z,97706.33
2018-06-12T22:27:17.476Z,97695.98
2018-06-12T22:29:46.836Z,97701.42
2018-06-12T22:32:16.258Z,97702.22
2018-06-12T22:34:45.568Z,97706.52
2018-06-12T22:37:14.908Z,97700.03
2018-06-12T22:39:44.241Z,97705.38
2018-06-12T22:42:13.592Z,97704.54
2018-06-12T22:44:42.945Z,97701.95
2018-06-12T22:47:12.288Z,97709.48
2018-06-12T22:49:41.698Z,97709.27
2018-06-12T22:52:11.033Z,97714.83
2018-06-12T22:54:40.440Z,97716.03
2018-06-12T22:57:09.791Z,97722.90
2018-06-12T22:59:39.136Z,97724.58
2018-06-12T23:02:08.518Z,97724.92
2018-06-12T23:04:37.889Z,97727.36
2018-06-12T23:07:10.516Z,97723.63
2018-06-12T23:09:39.884Z,97730.36
2018-06-12T23:12:09.235Z,97732.47
2018-06-12T23:14:38.621Z,97734.39
2018-06-12T23:17:08.020Z,97736.42
2018-06-12T23:19:58.113Z,97739.61
2018-06-12T23:22:27.417Z,97745.27
2018-06-12T23:24:56.779Z,97741.20
2018-06-12T23:27:26.099Z,97746.28
2018-06-12T23:29:55.419Z,97745.08
2018-06-12T23:32:24.784Z,97749.19
2018-06-12T23:34:54.116Z,97744.72
2018-06-12T23:37:23.495Z,97748.34
2018-06-12T23:39:52.876Z,97746.47
2018-06-12T23:42:22.223Z,97746.55
2018-06-12T23:44:51.556Z,97744.64
2018-06-12T23:47:20.920Z,97744.48
2018-06-12T23:49:50.307Z,97739.12
2018-06-12T23:52:19.628Z,97738.19
2018-06-12T23:54:48.981Z,97741.14
2018-06-12T23:57:18.333Z,97740.48
2018-06-12T23:59:47.664Z,97743.71
